createdAt,value
2017-11-08T00:01:47.721Z,42.58
2017-11-08T00:04:15.274Z,39.25
2017-11-08T00:06:41.896Z,39.40
2017-11-08T00:09:08.514Z,43.65
2017-11-08T00:11:35.135Z,44.15
2017-11-08T00:14:01.748Z,43.38
2017-11-08T00:16:28.409Z,38.92
2017-11-08T00:18:57.964Z,47.15
2017-11-08T00:21:30.359Z,40.23
2017-11-08T00:23:56.975Z,41.42
2017-11-08T00:26:23.678Z,40.90
2017-11-08T00:28:50.317Z,50.17
2017-11-08T00:31:16.932Z,48.92
2017-11-08T00:33:43.545Z,44.28
2017-11-08T00:36:10.174Z,40.30
2017-11-08T00:38:36.911Z,46.35
2017-11-08T00:41:03.526Z,39.75
2017-11-08T00:43:30.157Z,43.42
2017-11-08T00:45:56.890Z,44.85
2017-11-08T00:48:23.503Z,40.60
2017-11-08T00:50:52.997Z,49.67
2017-11-08T00:53:19.601Z,45.55
2017-11-08T00:55:46.218Z,51.75
2017-11-08T00:58:14.646Z,39.75
2017-11-08T01:00:44.138Z,47.65
2017-11-08T01:03:10.746Z,47.55
2017-11-08T01:05:37.414Z,42.33
2017-11-08T01:08:04.034Z,44.25
2017-11-08T01:10:30.667Z,45.40
2017-11-08T01:12:57.398Z,44.05
2017-11-08T01:15:24.002Z,47.97
2017-11-08T01:17:50.633Z,46.40
2017-11-08T01:20:17.245Z,42.38
2017-11-08T01:22:43.862Z,45.33
2017-11-08T01:25:10.485Z,46.03
2017-11-08T01:27:37.093Z,41.88
2017-11-08T01:30:03.706Z,42.92
2017-11-08T01:32:30.333Z,44.97
2017-11-08T01:34:57.041Z,34.75
2017-11-08T01:37:26.555Z,41.50
2017-11-08T01:39:53.293Z,39.15
2017-11-08T01:42:19.896Z,41.72
2017-11-08T01:44:48.450Z,41.22
2017-11-08T01:47:15.153Z,40.12
2017-11-08T01:49:41.761Z,38.72
2017-11-08T01:52:11.139Z,42.85
2017-11-08T01:54:37.839Z,40.33
2017-11-08T01:57:04.446Z,44.50
2017-11-08T01:59:31.113Z,44.28
2017-11-08T02:01:57.742Z,44.90
2017-11-08T02:04:24.354Z,49.10
2017-11-08T02:06:50.968Z,44.80
2017-11-08T02:09:17.590Z,44.17
2017-11-08T02:11:44.201Z,45.70
2017-11-08T02:14:10.805Z,43.08
2017-11-08T02:16:37.483Z,44.92
2017-11-08T02:19:04.099Z,51.90
2017-11-08T02:21:30.706Z,47.33
2017-11-08T02:23:57.334Z,47.33
2017-11-08T02:26:29.795Z,42.08
2017-11-08T02:28:56.421Z,45.38
2017-11-08T02:31:23.043Z,50.17
2017-11-08T02:33:49.658Z,44.15
2017-11-08T02:36:16.375Z,50.80
2017-11-08T02:38:42.982Z,47.55
2017-11-08T02:41:09.614Z,46.00
2017-11-08T02:43:36.226Z,46.90
2017-11-08T02:46:07.756Z,44.95
2017-11-08T02:48:34.388Z,43.08
2017-11-08T02:51:01.086Z,43.13
2017-11-08T02:53:30.565Z,52.00
2017-11-08T02:55:59.034Z,49.47
2017-11-08T02:58:25.642Z,45.70
2017-11-08T03:00:52.258Z,48.70
2017-11-08T03:03:18.886Z,49.65
2017-11-08T03:05:45.494Z,46.08
2017-11-08T03:08:12.130Z,49.55
2017-11-08T03:10:38.742Z,48.00
2017-11-08T03:13:05.350Z,47.55
2017-11-08T03:15:31.977Z,43.28
2017-11-08T03:17:58.580Z,45.55
2017-11-08T03:20:25.196Z,45.97
2017-11-08T03:22:51.822Z,48.30
2017-11-08T03:25:18.434Z,50.40
2017-11-08T03:27:45.046Z,45.67
2017-11-08T03:30:11.711Z,57.20
2017-11-08T03:32:38.314Z,45.88
2017-11-08T03:35:04.920Z,46.35
2017-11-08T03:37:31.543Z,49.58
2017-11-08T03:39:58.159Z,45.40
2017-11-08T03:42:24.785Z,50.08
2017-11-08T03:44:51.399Z,48.05
2017-11-08T03:47:18.010Z,44.28
2017-11-08T03:49:44.662Z,46.90
2017-11-08T03:52:11.384Z,44.85
2017-11-08T03:54:38.013Z,50.80
2017-11-08T03:57:04.687Z,51.70
2017-11-08T03:59:31.289Z,43.85
2017-11-08T04:01:57.913Z,44.63
2017-11-08T04:04:24.557Z,48.25
2017-11-08T04:06:51.237Z,48.20
2017-11-08T04:09:17.856Z,47.08
2017-11-08T04:11:44.582Z,51.05
2017-11-08T04:14:11.189Z,52.72
2017-11-08T04:16:37.809Z,52.92
2017-11-08T04:19:04.424Z,55.08
2017-11-08T04:21:31.049Z,48.97
2017-11-08T04:23:57.661Z,46.08
2017-11-08T04:26:24.273Z,47.92
2017-11-08T04:28:50.906Z,52.55
2017-11-08T04:31:17.518Z,47.40
2017-11-08T04:33:44.141Z,56.75
2017-11-08T04:36:10.766Z,55.42
2017-11-08T04:38:37.415Z,60.38
2017-11-08T04:41:04.021Z,61.50
2017-11-08T04:43:30.642Z,58.30
2017-11-08T04:45:57.318Z,52.85
2017-11-08T04:48:23.946Z,53.40
2017-11-08T04:50:50.594Z,52.22
2017-11-08T04:53:17.209Z,61.53
2017-11-08T04:55:43.833Z,54.38
2017-11-08T04:58:10.453Z,54.22
2017-11-08T05:00:37.058Z,48.63
2017-11-08T05:03:03.688Z,52.42
2017-11-08T05:05:30.300Z,56.20
2017-11-08T05:07:56.897Z,58.95
2017-11-08T05:10:23.526Z,51.20
2017-11-08T05:12:50.249Z,57.87
2017-11-08T05:15:16.857Z,55.40
2017-11-08T05:17:43.526Z,57.40
2017-11-08T05:20:10.138Z,53.35
2017-11-08T05:22:36.760Z,55.90
2017-11-08T05:25:03.446Z,59.42
2017-11-08T05:27:30.182Z,54.83
2017-11-08T05:29:57.722Z,57.83
2017-11-08T05:32:24.382Z,57.55
2017-11-08T05:34:50.986Z,55.03
2017-11-08T05:37:17.605Z,56.22
2017-11-08T05:39:44.248Z,59.83
2017-11-08T05:42:10.945Z,51.75
2017-11-08T05:44:37.562Z,58.58
2017-11-08T05:47:04.199Z,57.70
2017-11-08T05:49:30.807Z,55.08
2017-11-08T05:51:57.426Z,55.85
2017-11-08T05:54:24.055Z,58.08
2017-11-08T05:56:50.770Z,59.13
2017-11-08T05:59:17.378Z,56.40
2017-11-08T06:01:44.010Z,54.27
2017-11-08T06:04:10.617Z,57.00
2017-11-08T06:06:37.234Z,52.40
2017-11-08T06:09:03.873Z,56.10
2017-11-08T06:11:30.486Z,65.00
2017-11-08T06:13:57.102Z,56.17
2017-11-08T06:16:23.781Z,58.67
2017-11-08T06:18:50.390Z,60.28
2017-11-08T06:21:17.100Z,59.72
2017-11-08T06:23:43.729Z,56.65
2017-11-08T06:26:10.345Z,63.05
2017-11-08T06:28:36.998Z,59.05
2017-11-08T06:31:03.701Z,56.97
2017-11-08T06:33:30.301Z,58.40
2017-11-08T06:35:56.910Z,58.42
2017-11-08T06:38:23.557Z,56.63
2017-11-08T06:40:50.218Z,49.15
2017-11-08T06:43:16.853Z,53.22
2017-11-08T06:45:43.473Z,55.03
2017-11-08T06:48:10.086Z,58.85
2017-11-08T06:50:37.474Z,57.80
2017-11-08T06:53:06.004Z,51.87
2017-11-08T06:55:35.218Z,58.85
2017-11-08T06:58:02.714Z,56.03
2017-11-08T07:00:29.370Z,49.75
2017-11-08T07:02:55.977Z,49.30
2017-11-08T07:05:22.704Z,49.45
2017-11-08T07:07:49.318Z,48.50
2017-11-08T07:10:16.072Z,52.20
2017-11-08T07:12:42.708Z,55.90
2017-11-08T07:15:09.313Z,47.92
2017-11-08T07:17:35.947Z,56.37
2017-11-08T07:20:02.553Z,52.70
2017-11-08T07:22:29.158Z,51.92
2017-11-08T07:24:55.782Z,54.05
2017-11-08T07:27:22.390Z,63.55
2017-11-08T07:29:49.017Z,54.28
2017-11-08T07:32:15.722Z,67.68
2017-11-08T07:34:42.336Z,59.03
2017-11-08T07:37:09.062Z,55.95
2017-11-08T07:39:35.670Z,48.87
2017-11-08T07:42:02.282Z,56.70
2017-11-08T07:44:28.906Z,53.30
2017-11-08T07:46:55.518Z,69.97
2017-11-08T07:49:22.123Z,68.87
2017-11-08T07:51:48.749Z,64.03
2017-11-08T07:54:20.181Z,56.83
2017-11-08T07:56:46.794Z,58.80
2017-11-08T07:59:13.413Z,54.55
2017-11-08T08:01:40.013Z,51.75
2017-11-08T08:04:06.739Z,85.72
2017-11-08T08:06:33.438Z,72.53
2017-11-08T08:09:00.048Z,51.00
2017-11-08T08:11:26.658Z,50.58
2017-11-08T08:13:58.228Z,54.33
2017-11-08T08:16:24.830Z,59.10
2017-11-08T08:18:51.470Z,47.35
2017-11-08T08:21:23.978Z,43.90
2017-11-08T08:23:50.676Z,45.90
2017-11-08T08:26:17.282Z,49.05
2017-11-08T08:28:43.906Z,42.97
2017-11-08T08:31:10.585Z,42.58
2017-11-08T08:33:37.213Z,45.72
2017-11-08T08:36:03.816Z,43.72
2017-11-08T08:38:30.438Z,47.45
2017-11-08T08:40:57.057Z,41.97
2017-11-08T08:43:23.662Z,43.80
2017-11-08T08:45:50.313Z,40.83
2017-11-08T08:48:16.917Z,42.03
2017-11-08T08:50:43.581Z,44.60
2017-11-08T08:53:10.214Z,43.67
2017-11-08T08:55:36.869Z,44.33
2017-11-08T08:58:03.491Z,43.45
2017-11-08T09:00:30.130Z,44.90
2017-11-08T09:02:56.781Z,43.70
2017-11-08T09:05:23.389Z,42.80
2017-11-08T09:07:50.022Z,40.55
2017-11-08T09:10:16.707Z,42.35
2017-11-08T09:12:43.338Z,47.55
2017-11-08T09:15:09.941Z,41.60
2017-11-08T09:17:36.555Z,48.80
2017-11-08T09:20:03.190Z,48.15
2017-11-08T09:22:29.818Z,43.30
2017-11-08T09:24:59.186Z,44.40
2017-11-08T09:27:27.787Z,44.25
2017-11-08T09:29:55.341Z,47.83
2017-11-08T09:32:21.995Z,42.58
2017-11-08T09:34:48.620Z,47.72
2017-11-08T09:37:15.230Z,44.33
2017-11-08T09:39:41.842Z,43.78
2017-11-08T09:42:09.202Z,47.15
2017-11-08T09:44:35.812Z,43.25
2017-11-08T09:47:02.440Z,44.17
2017-11-08T09:49:29.051Z,36.85
2017-11-08T09:51:55.667Z,44.63
2017-11-08T09:54:22.297Z,46.55
2017-11-08T09:56:48.917Z,42.13
2017-11-08T09:59:16.302Z,42.30
2017-11-08T10:01:42.925Z,40.30
2017-11-08T10:04:09.563Z,43.45
2017-11-08T10:06:51.090Z,40.47
2017-11-08T10:09:22.629Z,42.60
2017-11-08T10:11:53.101Z,40.88
2017-11-08T10:14:19.719Z,41.22
2017-11-08T10:16:48.197Z,43.63
2017-11-08T10:19:15.760Z,36.15
2017-11-08T10:21:44.206Z,38.65
2017-11-08T10:24:10.900Z,35.05
2017-11-08T10:26:37.519Z,32.33
2017-11-08T10:29:04.138Z,34.40
2017-11-08T10:31:30.750Z,31.35
2017-11-08T10:33:57.358Z,29.67
2017-11-08T10:36:24.955Z,31.60
2017-11-08T10:38:51.597Z,30.42
2017-11-08T10:41:18.208Z,30.48
2017-11-08T10:43:44.836Z,32.50
2017-11-08T10:46:14.368Z,32.08
2017-11-08T10:48:40.982Z,31.48
2017-11-08T10:51:12.535Z,27.13
2017-11-08T10:53:39.227Z,27.20
2017-11-08T10:56:05.883Z,33.95
2017-11-08T10:58:32.495Z,29.65
2017-11-08T11:00:59.122Z,33.08
2017-11-08T11:03:26.534Z,31.00
2017-11-08T11:05:53.151Z,28.65
2017-11-08T11:08:19.891Z,31.67
2017-11-08T11:10:46.507Z,29.58
2017-11-08T11:13:15.114Z,31.08
2017-11-08T11:15:41.797Z,33.47
2017-11-08T11:18:08.412Z,29.02
2017-11-08T11:20:35.022Z,29.35
2017-11-08T11:23:01.667Z,25.02
2017-11-08T11:25:28.356Z,27.52
2017-11-08T11:27:54.977Z,26.73
2017-11-08T11:30:25.479Z,27.50
2017-11-08T11:32:52.183Z,32.33
2017-11-08T11:35:18.810Z,34.63
2017-11-08T11:37:47.289Z,33.70
2017-11-08T11:40:13.903Z,38.40
2017-11-08T11:42:40.524Z,31.58
2017-11-08T11:45:07.137Z,36.65
2017-11-08T11:47:36.535Z,38.65
2017-11-08T11:50:03.139Z,32.85
2017-11-08T11:52:29.796Z,35.00
2017-11-08T11:54:56.447Z,34.63
2017-11-08T11:57:23.064Z,29.30
2017-11-08T11:59:49.712Z,35.83
2017-11-08T12:02:16.340Z,35.22
2017-11-08T12:04:42.983Z,34.45
2017-11-08T12:07:09.601Z,36.53
2017-11-08T12:09:36.270Z,39.72
2017-11-08T12:12:02.915Z,33.30
2017-11-08T12:14:29.526Z,32.38
2017-11-08T12:16:57.952Z,34.67
2017-11-08T12:19:24.554Z,35.88
2017-11-08T12:21:51.299Z,36.25
2017-11-08T12:24:18.010Z,35.72
2017-11-08T12:26:44.631Z,34.60
2017-11-08T12:29:11.231Z,32.22
2017-11-08T12:31:37.927Z,34.35
2017-11-08T12:34:04.612Z,34.13
2017-11-08T12:36:31.223Z,32.95
2017-11-08T12:38:57.859Z,34.45
2017-11-08T12:41:25.034Z,32.20
2017-11-08T12:43:57.403Z,33.55
2017-11-08T12:46:24.039Z,32.08
2017-11-08T12:48:50.643Z,34.70
2017-11-08T12:51:17.271Z,31.23
2017-11-08T12:53:44.211Z,30.40
2017-11-08T12:56:11.565Z,33.10
2017-11-08T12:58:38.884Z,28.17
2017-11-08T13:01:06.593Z,29.73
2017-11-08T13:03:33.592Z,33.00
2017-11-08T13:06:03.153Z,24.85
2017-11-08T13:08:29.799Z,26.17
2017-11-08T13:10:59.436Z,26.62
2017-11-08T13:13:26.189Z,29.67
2017-11-08T13:15:52.872Z,32.25
2017-11-08T13:18:19.678Z,29.95
2017-11-08T13:20:46.302Z,28.05
2017-11-08T13:23:12.914Z,25.75
2017-11-08T13:25:39.543Z,29.95
2017-11-08T13:28:06.192Z,26.77
2017-11-08T13:30:33.835Z,24.20
2017-11-08T13:33:00.513Z,25.73
2017-11-08T13:35:27.152Z,24.00
2017-11-08T13:37:53.783Z,25.73
2017-11-08T13:40:20.426Z,24.50
2017-11-08T13:42:47.048Z,21.45
2017-11-08T13:45:13.730Z,23.52
2017-11-08T13:47:40.366Z,23.02
2017-11-08T13:50:06.987Z,30.37
2017-11-08T13:52:33.638Z,24.75
2017-11-08T13:55:00.247Z,19.37
2017-11-08T13:57:26.863Z,18.60
2017-11-08T13:59:53.500Z,16.80
2017-11-08T14:02:20.214Z,16.42
2017-11-08T14:04:48.618Z,16.62
2017-11-08T14:07:15.256Z,16.00
2017-11-08T14:09:41.878Z,15.73
2017-11-08T14:12:08.515Z,17.25
2017-11-08T14:14:35.165Z,17.98
2017-11-08T14:17:01.786Z,16.80
2017-11-08T14:19:28.423Z,21.15
2017-11-08T14:21:55.047Z,20.37
2017-11-08T14:24:21.659Z,19.75
2017-11-08T14:26:48.354Z,16.02
2017-11-08T14:29:22.891Z,19.27
2017-11-08T14:31:49.608Z,17.08
2017-11-08T14:34:16.258Z,18.52
2017-11-08T14:36:42.882Z,20.80
2017-11-08T14:39:09.487Z,16.83
2017-11-08T14:41:39.180Z,22.33
2017-11-08T14:44:05.789Z,18.35
2017-11-08T14:46:32.414Z,19.08
2017-11-08T14:48:59.047Z,17.42
2017-11-08T14:51:25.690Z,21.73
2017-11-08T14:53:52.331Z,17.50
2017-11-08T14:56:19.021Z,17.37
2017-11-08T14:58:45.633Z,17.75
2017-11-08T15:01:12.242Z,19.37
2017-11-08T15:03:38.871Z,20.98
2017-11-08T15:06:05.527Z,21.50
2017-11-08T15:08:32.206Z,21.55
2017-11-08T15:10:58.819Z,20.55
2017-11-08T15:13:25.543Z,22.80
2017-11-08T15:15:52.171Z,24.92
2017-11-08T15:18:18.788Z,22.13
2017-11-08T15:20:45.480Z,26.08
2017-11-08T15:23:12.903Z,19.48
2017-11-08T15:25:39.515Z,25.70
2017-11-08T15:28:06.150Z,23.40
2017-11-08T15:30:33.430Z,20.88
2017-11-08T15:33:00.043Z,20.85
2017-11-08T15:35:26.776Z,27.27
2017-11-08T15:37:53.470Z,24.42
2017-11-08T15:40:20.821Z,26.73
2017-11-08T15:42:47.447Z,25.15
2017-11-08T15:45:14.060Z,25.10
2017-11-08T15:47:40.667Z,20.90
2017-11-08T15:50:07.299Z,21.87
2017-11-08T15:52:33.913Z,26.30
2017-11-08T15:55:00.527Z,20.88
2017-11-08T15:57:27.159Z,24.73
2017-11-08T15:59:53.777Z,23.30
2017-11-08T16:02:20.392Z,22.55
2017-11-08T16:04:47.019Z,26.80
2017-11-08T16:07:13.630Z,31.62
2017-11-08T16:09:40.290Z,33.78
2017-11-08T16:12:07.030Z,31.10
2017-11-08T16:14:33.643Z,28.33
2017-11-08T16:17:00.253Z,24.00
2017-11-08T16:19:26.950Z,23.15
2017-11-08T16:21:53.564Z,21.85
2017-11-08T16:24:20.171Z,25.15
2017-11-08T16:26:46.817Z,24.85
2017-11-08T16:29:16.386Z,26.87
2017-11-08T16:31:47.011Z,22.52
2017-11-08T16:34:13.627Z,22.45
2017-11-08T16:36:40.329Z,23.20
2017-11-08T16:39:06.950Z,24.67
2017-11-08T16:41:33.562Z,24.48
2017-11-08T16:44:00.167Z,24.77
2017-11-08T16:46:26.850Z,30.55
2017-11-08T16:48:53.467Z,35.08
2017-11-08T16:51:20.079Z,25.30
2017-11-08T16:53:46.703Z,25.67
2017-11-08T16:56:13.310Z,23.00
2017-11-08T16:58:39.918Z,23.65
2017-11-08T17:01:06.544Z,24.52
2017-11-08T17:03:33.162Z,24.98
2017-11-08T17:05:59.851Z,23.27
2017-11-08T17:08:26.479Z,26.98
2017-11-08T17:10:53.131Z,23.95
2017-11-08T17:13:19.752Z,30.15
2017-11-08T17:15:46.378Z,27.92
2017-11-08T17:18:12.987Z,26.10
2017-11-08T17:20:39.688Z,27.77
2017-11-08T17:23:06.307Z,26.90
2017-11-08T17:25:32.923Z,27.48
2017-11-08T17:27:59.551Z,29.33
2017-11-08T17:30:26.164Z,34.55
2017-11-08T17:32:52.779Z,26.90
2017-11-08T17:35:19.403Z,28.52
2017-11-08T17:37:46.014Z,27.33
2017-11-08T17:40:12.624Z,37.45
2017-11-08T17:42:39.258Z,31.12
2017-11-08T17:45:05.867Z,29.02
2017-11-08T17:47:32.476Z,28.40
2017-11-08T17:49:59.116Z,31.77
2017-11-08T17:52:25.786Z,26.85
2017-11-08T17:54:52.395Z,29.87
2017-11-08T17:57:19.067Z,29.02
2017-11-08T17:59:45.720Z,31.58
2017-11-08T18:02:12.322Z,38.92
2017-11-08T18:04:38.952Z,37.50
2017-11-08T18:07:05.618Z,43.70
2017-11-08T18:09:32.251Z,41.08
2017-11-08T18:11:58.907Z,32.22
2017-11-08T18:14:25.548Z,26.12
2017-11-08T18:16:52.166Z,25.42
2017-11-08T18:19:18.780Z,27.67
2017-11-08T18:21:45.393Z,27.77
2017-11-08T18:24:12.019Z,29.10
2017-11-08T18:26:38.648Z,34.33
2017-11-08T18:29:05.261Z,31.67
2017-11-08T18:31:31.878Z,26.80
2017-11-08T18:33:58.482Z,32.10
2017-11-08T18:36:25.118Z,33.03
2017-11-08T18:38:51.731Z,39.00
2017-11-08T18:41:18.363Z,36.28
2017-11-08T18:43:45.008Z,41.35
2017-11-08T18:46:11.615Z,32.30
2017-11-08T18:48:38.228Z,35.30
2017-11-08T18:51:04.861Z,34.15
2017-11-08T18:53:31.571Z,29.50
2017-11-08T18:55:58.192Z,20.70
2017-11-08T18:58:24.820Z,27.37
2017-11-08T19:00:51.523Z,26.45
2017-11-08T19:03:18.131Z,28.42
2017-11-08T19:05:44.755Z,28.65
2017-11-08T19:08:11.362Z,33.47
2017-11-08T19:10:38.031Z,39.35
2017-11-08T19:13:04.647Z,32.72
2017-11-08T19:15:31.265Z,31.37
2017-11-08T19:17:57.946Z,27.30
2017-11-08T19:20:24.563Z,28.35
2017-11-08T19:22:51.177Z,30.90
2017-11-08T19:25:17.798Z,27.48
2017-11-08T19:27:44.510Z,30.33
2017-11-08T19:30:11.119Z,29.42
2017-11-08T19:32:37.754Z,30.45
2017-11-08T19:35:04.424Z,30.37
2017-11-08T19:37:31.035Z,28.95
2017-11-08T19:39:57.704Z,32.10
2017-11-08T19:42:24.324Z,32.95
2017-11-08T19:44:50.951Z,33.10
2017-11-08T19:47:17.564Z,28.52
2017-11-08T19:49:44.179Z,28.70
2017-11-08T19:52:10.809Z,34.58
2017-11-08T19:54:37.414Z,31.00
2017-11-08T19:57:04.026Z,28.77
2017-11-08T19:59:30.659Z,32.53
2017-11-08T20:01:57.355Z,37.95
2017-11-08T20:04:24.007Z,27.85
2017-11-08T20:06:50.630Z,32.08
2017-11-08T20:09:17.238Z,33.88
2017-11-08T20:11:43.906Z,35.92
2017-11-08T20:14:10.536Z,33.22
2017-11-08T20:16:37.147Z,27.98
2017-11-08T20:19:03.828Z,33.47
2017-11-08T20:21:30.460Z,29.80
2017-11-08T20:23:57.067Z,32.40
2017-11-08T20:26:23.681Z,31.02
2017-11-08T20:28:50.322Z,32.78
2017-11-08T20:31:16.930Z,34.47
2017-11-08T20:33:43.548Z,32.80
2017-11-08T20:36:10.191Z,34.53
2017-11-08T20:38:36.806Z,35.03
2017-11-08T20:41:03.521Z,44.80
2017-11-08T20:43:30.143Z,38.70
2017-11-08T20:45:56.747Z,37.30
2017-11-08T20:48:23.387Z,36.40
2017-11-08T20:50:50.016Z,34.47
2017-11-08T20:53:16.666Z,33.75
2017-11-08T20:55:43.280Z,42.85
2017-11-08T20:58:09.899Z,45.38
2017-11-08T21:00:36.510Z,53.53
2017-11-08T21:03:03.119Z,46.17
2017-11-08T21:05:29.748Z,35.75
2017-11-08T21:07:56.359Z,37.10
2017-11-08T21:10:22.976Z,38.40
2017-11-08T21:12:49.686Z,32.72
2017-11-08T21:15:16.294Z,31.25
2017-11-08T21:17:42.963Z,31.50
2017-11-08T21:20:09.594Z,32.45
2017-11-08T21:22:36.234Z,35.70
2017-11-08T21:25:03.591Z,30.35
2017-11-08T21:27:30.219Z,35.15
2017-11-08T21:29:56.826Z,33.67
2017-11-08T21:32:23.449Z,30.85
2017-11-08T21:34:50.193Z,34.22
2017-11-08T21:37:16.812Z,27.10
2017-11-08T21:39:43.425Z,31.37
2017-11-08T21:42:10.068Z,30.45
2017-11-08T21:44:36.672Z,29.40
2017-11-08T21:47:03.285Z,35.25
2017-11-08T21:49:29.924Z,33.28
2017-11-08T21:51:56.531Z,27.37
2017-11-08T21:54:23.139Z,29.45
2017-11-08T21:56:49.763Z,26.00
2017-11-08T21:59:16.376Z,28.40
2017-11-08T22:01:43.004Z,30.08
2017-11-08T22:04:09.646Z,30.90
2017-11-08T22:06:36.354Z,27.83
2017-11-08T22:09:02.980Z,27.13
2017-11-08T22:11:29.587Z,25.37
2017-11-08T22:13:56.195Z,29.73
2017-11-08T22:16:22.835Z,28.48
2017-11-08T22:18:49.447Z,33.28
2017-11-08T22:21:16.066Z,29.70
2017-11-08T22:23:42.727Z,25.00
2017-11-08T22:26:09.343Z,30.37
2017-11-08T22:28:35.947Z,28.90
2017-11-08T22:31:02.649Z,31.92
2017-11-08T22:33:29.272Z,28.50
2017-11-08T22:35:55.900Z,29.52
2017-11-08T22:38:24.472Z,31.20
2017-11-08T22:40:51.105Z,126.60
2017-11-08T22:43:17.739Z,47.70
2017-11-08T22:45:44.364Z,35.22
2017-11-08T22:48:10.967Z,34.10
2017-11-08T22:50:37.594Z,36.97
2017-11-08T22:53:04.210Z,32.67
2017-11-08T22:55:30.820Z,37.30
2017-11-08T22:57:57.441Z,32.65
2017-11-08T23:00:24.055Z,35.75
2017-11-08T23:02:50.687Z,30.20
2017-11-08T23:05:17.295Z,38.28
2017-11-08T23:07:43.903Z,36.38
2017-11-08T23:10:10.524Z,34.60
2017-11-08T23:12:37.126Z,39.15
2017-11-08T23:15:03.759Z,42.03
2017-11-08T23:17:30.422Z,38.38
2017-11-08T23:19:57.031Z,37.33
2017-11-08T23:22:23.663Z,37.17
2017-11-08T23:24:50.271Z,33.45
2017-11-08T23:27:16.983Z,34.28
2017-11-08T23:29:43.603Z,37.20
2017-11-08T23:32:10.215Z,35.40
2017-11-08T23:34:36.905Z,38.42
2017-11-08T23:37:03.523Z,41.15
2017-11-08T23:39:30.134Z,40.12
2017-11-08T23:41:56.759Z,40.05
2017-11-08T23:44:23.387Z,40.47
2017-11-08T23:46:50.003Z,44.10
2017-11-08T23:49:16.615Z,41.50
2017-11-08T23:51:43.270Z,41.60
2017-11-08T23:54:09.928Z,41.45
2017-11-08T23:56:36.530Z,40.90
2017-11-08T23:59:08.878Z,49.13
